createdAt,value
2018-07-06T00:50:03.548Z,20.02
2018-07-06T00:52:44.233Z,20.08
2018-07-06T00:55:24.082Z,20.09
2018-07-06T00:58:03.880Z,20.16
2018-07-06T01:00:43.828Z,20.18
2018-07-06T01:03:23.641Z,20.17
2018-07-06T01:06:03.640Z,20.11
2018-07-06T01:08:43.510Z,20.18
2018-07-06T01:11:23.315Z,20.15
2018-07-06T01:14:03.072Z,20.09
2018-07-06T01:16:42.973Z,20.11
2018-07-06T01:19:22.825Z,20.02
2018-07-06T01:22:02.614Z,19.99
2018-07-06T01:24:42.324Z,19.91
2018-07-06T01:27:22.017Z,19.87
2018-07-06T01:30:01.558Z,19.93
2018-07-06T01:32:41.288Z,19.83
2018-07-06T01:35:21.080Z,19.82
2018-07-06T01:38:00.761Z,19.65
2018-07-06T01:40:40.468Z,19.76
2018-07-06T01:43:20.408Z,19.61
2018-07-06T01:46:00.233Z,19.62
2018-07-06T01:48:39.808Z,19.62
2018-07-06T01:51:19.683Z,19.47
2018-07-06T01:53:59.363Z,19.48
2018-07-06T01:56:39.160Z,19.48
2018-07-06T01:59:19.028Z,19.22
2018-07-06T02:01:58.664Z,19.42
2018-07-06T02:04:38.768Z,19.49
2018-07-06T02:07:18.360Z,19.59
2018-07-06T02:09:57.988Z,19.59
2018-07-06T02:12:37.580Z,19.51
2018-07-06T02:15:17.332Z,19.54
2018-07-06T02:17:57.041Z,19.66
2018-07-06T02:20:36.753Z,19.58
2018-07-06T02:23:16.518Z,19.66
2018-07-06T02:25:56.332Z,19.87
2018-07-06T02:28:36.131Z,19.88
2018-07-06T02:31:15.872Z,20.17
2018-07-06T02:33:55.678Z,20.41
2018-07-06T02:36:35.586Z,20.74
2018-07-06T02:39:15.268Z,20.92
2018-07-06T02:41:55.098Z,20.81
2018-07-06T02:44:35.104Z,20.91
2018-07-06T02:47:14.896Z,21.03
2018-07-06T02:49:54.661Z,20.63
2018-07-06T02:52:34.521Z,20.61
2018-07-06T02:55:14.258Z,20.76
2018-07-06T02:57:54.157Z,21.20
2018-07-06T03:00:33.907Z,20.60
2018-07-06T03:03:13.537Z,20.81
2018-07-06T03:05:53.316Z,20.48
2018-07-06T03:08:33.052Z,20.51
2018-07-06T03:11:12.851Z,20.69
2018-07-06T03:13:52.715Z,20.56
2018-07-06T03:16:32.465Z,20.41
2018-07-06T03:19:12.329Z,20.71
2018-07-06T03:21:52.022Z,20.61
2018-07-06T03:24:31.661Z,20.24
2018-07-06T03:27:11.285Z,20.68
2018-07-06T03:29:51.080Z,20.70
2018-07-06T03:32:31.144Z,20.89
2018-07-06T03:35:10.909Z,20.46
2018-07-06T03:37:50.649Z,20.50
2018-07-06T03:40:30.240Z,20.78
2018-07-06T03:43:10.129Z,20.78
2018-07-06T03:45:49.869Z,20.91
2018-07-06T03:48:29.673Z,20.84
2018-07-06T03:51:10.408Z,20.73
2018-07-06T03:53:50.130Z,20.76
2018-07-06T03:56:30.085Z,20.71
2018-07-06T03:59:09.824Z,20.64
2018-07-06T04:01:49.456Z,20.47
2018-07-06T04:04:29.318Z,20.45
2018-07-06T04:07:08.900Z,20.34
2018-07-06T04:09:48.704Z,20.22
2018-07-06T04:12:28.520Z,20.14
2018-07-06T04:15:08.347Z,20.21
2018-07-06T04:17:48.113Z,20.23
2018-07-06T04:20:27.828Z,20.34
2018-07-06T04:23:07.758Z,20.35
2018-07-06T04:25:47.396Z,20.22
2018-07-06T04:28:27.221Z,20.45
2018-07-06T04:31:07.055Z,20.09
2018-07-06T04:33:46.692Z,20.31
2018-07-06T04:36:26.489Z,20.09
2018-07-06T04:39:06.640Z,20.41
2018-07-06T04:41:46.426Z,20.44
2018-07-06T04:44:27.000Z,20.55
2018-07-06T04:47:06.726Z,21.40
2018-07-06T04:49:46.460Z,21.66
2018-07-06T04:52:26.388Z,21.77
2018-07-06T04:55:05.889Z,21.52
2018-07-06T04:57:45.764Z,22.04
2018-07-06T05:00:25.368Z,22.50
2018-07-06T05:03:05.148Z,22.63
2018-07-06T05:05:44.780Z,22.39
2018-07-06T05:08:24.417Z,22.40
2018-07-06T05:11:04.091Z,22.42
2018-07-06T05:13:43.809Z,22.44
2018-07-06T05:16:23.565Z,22.57
2018-07-06T05:19:03.532Z,22.30
2018-07-06T05:21:43.352Z,21.88
2018-07-06T05:24:23.157Z,21.82
2018-07-06T05:27:02.971Z,21.38
2018-07-06T05:29:42.753Z,21.84
2018-07-06T05:32:22.488Z,21.99
2018-07-06T05:35:02.155Z,21.54
2018-07-06T05:37:41.921Z,21.94
2018-07-06T05:40:21.568Z,21.79
2018-07-06T05:43:01.454Z,21.81
2018-07-06T05:45:41.516Z,22.13
2018-07-06T05:48:21.297Z,22.47
2018-07-06T05:51:01.189Z,22.81
2018-07-06T05:53:40.987Z,23.23
2018-07-06T05:56:20.712Z,23.08
2018-07-06T05:59:00.421Z,23.03
2018-07-06T06:01:40.220Z,23.54
2018-07-06T06:04:20.514Z,23.91
2018-07-06T06:07:00.407Z,23.96
2018-07-06T06:09:28.970Z,23.82
2018-07-06T06:11:57.800Z,23.50
2018-07-06T06:14:26.460Z,23.47
2018-07-06T06:16:55.176Z,23.81
2018-07-06T06:19:23.768Z,23.43
2018-07-06T06:21:52.348Z,23.34
2018-07-06T06:24:21.040Z,23.41
2018-07-06T06:26:49.632Z,23.86
2018-07-06T06:29:18.245Z,23.69
2018-07-06T06:31:46.981Z,23.74
2018-07-06T06:34:15.796Z,23.33
2018-07-06T06:36:44.683Z,23.52
2018-07-06T06:39:13.744Z,23.11
2018-07-06T06:41:42.413Z,23.51
2018-07-06T06:44:11.117Z,23.48
2018-07-06T06:46:39.839Z,23.17
2018-07-06T06:49:08.696Z,23.56
2018-07-06T06:51:37.354Z,23.39
2018-07-06T06:54:06.049Z,23.90
2018-07-06T06:56:34.816Z,23.76
2018-07-06T06:59:03.578Z,23.51
2018-07-06T07:01:32.332Z,23.65
2018-07-06T07:04:02.046Z,23.37
2018-07-06T07:06:30.728Z,23.49
2018-07-06T07:08:59.572Z,23.51
2018-07-06T07:11:28.188Z,23.15
2018-07-06T07:13:57.097Z,23.21
2018-07-06T07:16:25.634Z,23.57
2018-07-06T07:18:54.228Z,23.61
2018-07-06T07:21:22.922Z,23.98
2018-07-06T07:23:51.617Z,23.89
2018-07-06T07:26:20.253Z,23.80
2018-07-06T07:28:48.925Z,23.81
2018-07-06T07:31:17.574Z,24.11
2018-07-06T07:33:46.285Z,24.22
2018-07-06T07:36:14.905Z,24.13
2018-07-06T07:38:43.625Z,24.05
2018-07-06T07:41:12.257Z,24.53
2018-07-06T07:43:40.905Z,24.42
2018-07-06T07:46:09.505Z,24.10
2018-07-06T07:48:38.098Z,24.11
2018-07-06T07:51:17.932Z,24.49
2018-07-06T07:53:57.700Z,24.67
2018-07-06T07:56:26.416Z,24.62
2018-07-06T07:58:55.308Z,25.10
2018-07-06T08:01:23.972Z,24.77
2018-07-06T08:03:52.597Z,25.14
2018-07-06T08:06:21.157Z,24.94
2018-07-06T08:08:49.888Z,25.23
2018-07-06T08:11:18.449Z,24.78
2018-07-06T08:13:47.229Z,24.84
2018-07-06T08:16:15.932Z,24.73
2018-07-06T08:18:44.481Z,24.75
2018-07-06T08:21:13.225Z,25.00
2018-07-06T08:23:41.830Z,24.84
2018-07-06T08:26:10.452Z,25.03
2018-07-06T08:28:39.112Z,24.99
2018-07-06T08:31:07.716Z,25.12
2018-07-06T08:33:44.040Z,24.94
2018-07-06T08:36:24.515Z,24.81
2018-07-06T08:38:53.330Z,25.01
2018-07-06T08:41:21.966Z,24.75
2018-07-06T08:43:50.520Z,24.80
2018-07-06T08:46:19.196Z,24.89
2018-07-06T08:48:47.720Z,25.20
2018-07-06T08:51:16.645Z,25.21
2018-07-06T08:53:45.216Z,24.98
2018-07-06T08:56:13.748Z,25.63
2018-07-06T08:58:42.712Z,25.31
2018-07-06T09:01:11.373Z,25.62
2018-07-06T09:03:39.978Z,25.49
2018-07-06T09:06:08.496Z,26.05
2018-07-06T09:08:37.053Z,25.97
2018-07-06T09:11:05.674Z,25.89
2018-07-06T09:13:34.232Z,25.44
2018-07-06T09:16:03.084Z,25.60
2018-07-06T09:18:31.620Z,26.11
2018-07-06T09:21:00.232Z,26.10
2018-07-06T09:23:28.862Z,26.22
2018-07-06T09:25:57.708Z,26.21
2018-07-06T09:28:25.948Z,25.50
2018-07-06T09:30:54.520Z,25.77
2018-07-06T09:33:23.084Z,25.36
2018-07-06T09:35:51.767Z,26.09
2018-07-06T09:38:20.396Z,25.72
2018-07-06T09:40:49.147Z,26.21
2018-07-06T09:43:17.711Z,26.44
2018-07-06T09:45:46.285Z,26.61
2018-07-06T09:48:14.924Z,26.69
2018-07-06T09:50:43.503Z,26.49
2018-07-06T09:53:12.256Z,26.92
2018-07-06T09:55:40.857Z,26.81
2018-07-06T09:58:09.549Z,26.51
2018-07-06T10:00:59.258Z,26.82
2018-07-06T10:03:28.732Z,27.03
2018-07-06T10:05:57.575Z,27.16
2018-07-06T10:08:26.196Z,26.90
2018-07-06T10:10:54.819Z,26.92
2018-07-06T10:13:23.400Z,27.12
2018-07-06T10:15:52.000Z,26.91
2018-07-06T10:18:20.836Z,26.51
2018-07-06T10:20:49.480Z,26.85
2018-07-06T10:23:18.066Z,26.68
2018-07-06T10:25:46.671Z,27.08
2018-07-06T10:29:27.356Z,27.06
2018-07-06T10:32:28.892Z,27.51
2018-07-06T10:34:58.204Z,27.29
2018-07-06T10:37:27.284Z,27.60
2018-07-06T10:39:55.984Z,27.62
2018-07-06T10:42:24.506Z,27.16
2018-07-06T10:44:53.153Z,27.55
2018-07-06T10:47:21.889Z,27.17
2018-07-06T10:49:50.760Z,26.77
2018-07-06T10:52:19.375Z,26.78
2018-07-06T10:54:48.522Z,26.71
2018-07-06T10:57:17.093Z,27.15
2018-07-06T10:59:45.896Z,27.94
2018-07-06T11:02:14.476Z,27.63
2018-07-06T11:04:43.134Z,27.74
2018-07-06T11:07:11.796Z,27.78
2018-07-06T11:09:40.429Z,28.04
2018-07-06T11:12:09.021Z,27.96
2018-07-06T11:14:37.584Z,28.39
2018-07-06T11:17:06.164Z,28.10
2018-07-06T11:19:34.764Z,27.40
2018-07-06T11:22:03.433Z,28.33
2018-07-06T11:24:32.084Z,28.20
2018-07-06T11:27:00.772Z,28.24
2018-07-06T11:29:29.320Z,28.32
2018-07-06T11:31:57.916Z,28.57
2018-07-06T11:34:26.536Z,28.19
2018-07-06T11:36:55.157Z,27.73
2018-07-06T11:39:23.692Z,28.07
2018-07-06T11:41:52.336Z,28.17
2018-07-06T11:44:21.153Z,28.29
2018-07-06T11:46:49.843Z,28.46
2018-07-06T11:49:18.419Z,28.62
2018-07-06T11:51:46.988Z,28.74
2018-07-06T11:54:15.569Z,29.10
2018-07-06T11:56:44.247Z,28.69
2018-07-06T11:59:12.824Z,28.78
2018-07-06T12:01:41.426Z,28.37
2018-07-06T12:04:10.150Z,28.53
2018-07-06T12:06:38.712Z,28.63
2018-07-06T12:09:07.404Z,28.69
2018-07-06T12:11:36.027Z,28.62
2018-07-06T12:14:04.704Z,28.57
2018-07-06T12:16:33.257Z,28.22
2018-07-06T12:19:01.873Z,28.50
2018-07-06T12:21:30.504Z,28.19
2018-07-06T12:23:59.057Z,28.01
2018-07-06T12:26:27.709Z,28.22
2018-07-06T12:28:56.298Z,28.61
2018-07-06T12:31:24.909Z,28.39
2018-07-06T12:33:53.588Z,28.71
2018-07-06T12:36:22.273Z,28.62
2018-07-06T12:38:50.877Z,28.72
2018-07-06T12:41:19.557Z,28.27
2018-07-06T12:43:48.017Z,28.62
2018-07-06T12:46:16.628Z,28.16
2018-07-06T12:48:45.201Z,28.23
2018-07-06T12:51:13.786Z,28.74
2018-07-06T12:53:42.461Z,28.33
2018-07-06T12:56:11.132Z,28.45
2018-07-06T12:58:39.887Z,28.29
2018-07-06T13:01:08.310Z,28.69
2018-07-06T13:03:36.932Z,28.23
2018-07-06T13:06:05.586Z,28.32
2018-07-06T13:08:34.308Z,28.17
2018-07-06T13:11:02.940Z,28.09
2018-07-06T13:13:31.496Z,28.36
2018-07-06T13:16:00.328Z,28.33
2018-07-06T13:18:28.868Z,28.48
2018-07-06T13:20:57.719Z,28.27
2018-07-06T13:23:26.430Z,28.57
2018-07-06T13:25:55.023Z,28.76
2018-07-06T13:28:23.619Z,28.70
2018-07-06T13:30:52.174Z,28.97
2018-07-06T13:33:20.785Z,29.02
2018-07-06T13:35:49.384Z,28.82
2018-07-06T13:38:17.974Z,29.01
2018-07-06T13:40:46.704Z,28.74
2018-07-06T13:43:15.576Z,28.49
2018-07-06T13:45:44.145Z,28.25
2018-07-06T13:48:12.792Z,28.42
2018-07-06T13:50:41.624Z,28.35
2018-07-06T13:53:10.619Z,28.31
2018-07-06T13:55:39.368Z,28.59
2018-07-06T13:58:07.876Z,28.57
2018-07-06T14:00:36.469Z,28.51
2018-07-06T14:03:05.025Z,28.36
2018-07-06T14:05:33.745Z,28.40
2018-07-06T14:08:02.338Z,28.40
2018-07-06T14:10:31.053Z,28.47
2018-07-06T14:12:59.653Z,28.65
2018-07-06T14:15:28.200Z,28.87
2018-07-06T14:17:56.828Z,28.59
2018-07-06T14:20:25.356Z,28.96
2018-07-06T14:22:53.972Z,28.91
2018-07-06T14:25:22.600Z,28.41
2018-07-06T14:27:51.267Z,28.63
2018-07-06T14:30:20.220Z,28.91
2018-07-06T14:32:48.813Z,28.78
2018-07-06T14:35:17.447Z,28.47
2018-07-06T14:37:46.037Z,28.79
2018-07-06T14:40:14.576Z,28.81
2018-07-06T14:42:43.364Z,29.05
2018-07-06T14:45:12.124Z,29.20
2018-07-06T14:47:40.721Z,29.04
2018-07-06T14:50:09.336Z,28.99
2018-07-06T14:52:38.277Z,28.65
2018-07-06T14:55:06.865Z,28.69
2018-07-06T14:57:35.464Z,28.66
2018-07-06T15:00:04.261Z,28.68
2018-07-06T15:02:32.932Z,28.44
2018-07-06T15:05:01.489Z,28.31
2018-07-06T15:07:30.349Z,28.70
2018-07-06T15:09:58.896Z,28.66
2018-07-06T15:12:27.687Z,28.61
2018-07-06T15:14:56.201Z,28.43
2018-07-06T15:17:24.784Z,28.35
2018-07-06T15:19:53.508Z,28.25
2018-07-06T15:22:22.118Z,28.35
2018-07-06T15:24:50.732Z,28.64
2018-07-06T15:27:19.276Z,28.54
2018-07-06T15:29:47.909Z,28.51
2018-07-06T15:32:16.585Z,28.54
2018-07-06T15:34:45.149Z,28.52
2018-07-06T15:37:13.789Z,28.50
2018-07-06T15:39:42.332Z,28.59
2018-07-06T15:42:11.092Z,28.33
2018-07-06T15:44:39.744Z,28.38
2018-07-06T15:47:08.374Z,28.10
2018-07-06T15:49:36.898Z,28.44
2018-07-06T15:52:05.604Z,28.29
2018-07-06T15:54:34.264Z,27.98
2018-07-06T15:57:02.875Z,28.19
2018-07-06T15:59:31.401Z,28.10
2018-07-06T16:02:00.027Z,28.24
2018-07-06T16:04:28.696Z,28.15
2018-07-06T16:06:57.216Z,28.11
2018-07-06T16:09:26.575Z,27.94
2018-07-06T16:11:55.348Z,28.01
2018-07-06T16:14:23.948Z,27.78
2018-07-06T16:16:52.552Z,27.93
2018-07-06T16:19:21.266Z,28.06
2018-07-06T16:21:49.841Z,27.93
2018-07-06T16:24:18.412Z,27.79
2018-07-06T16:26:47.080Z,27.57
2018-07-06T16:29:15.644Z,27.22
2018-07-06T16:31:44.186Z,27.32
2018-07-06T16:34:13.069Z,27.17
2018-07-06T16:36:41.629Z,27.17
2018-07-06T16:39:10.352Z,27.35
2018-07-06T16:41:38.921Z,27.58
2018-07-06T16:44:07.552Z,27.53
2018-07-06T16:46:36.120Z,27.36
2018-07-06T16:49:04.714Z,27.56
2018-07-06T16:51:33.308Z,27.41
2018-07-06T16:54:01.876Z,27.45
2018-07-06T16:56:30.507Z,27.54
2018-07-06T16:58:59.524Z,27.55
2018-07-06T17:01:28.072Z,27.54
2018-07-06T17:03:56.669Z,27.53
2018-07-06T17:06:25.221Z,27.29
2018-07-06T17:08:53.898Z,27.35
2018-07-06T17:11:22.613Z,27.28
2018-07-06T17:13:51.237Z,27.32
2018-07-06T17:16:19.880Z,27.23
2018-07-06T17:18:48.516Z,27.34
2018-07-06T17:21:17.060Z,27.42
2018-07-06T17:23:45.726Z,27.25
2018-07-06T17:26:14.392Z,27.11
2018-07-06T17:28:43.048Z,27.00
2018-07-06T17:31:11.674Z,27.27
2018-07-06T17:33:40.254Z,27.25
2018-07-06T17:36:08.872Z,26.82
2018-07-06T17:38:37.384Z,26.92
2018-07-06T17:41:06.001Z,26.73
2018-07-06T17:43:34.660Z,26.65
2018-07-06T17:46:03.200Z,26.74
2018-07-06T17:48:31.876Z,26.85
2018-07-06T17:51:00.424Z,26.69
2018-07-06T17:53:29.005Z,26.66
2018-07-06T17:55:57.976Z,26.58
2018-07-06T17:58:26.513Z,26.66
2018-07-06T18:00:55.336Z,26.53
2018-07-06T18:03:23.928Z,26.54
2018-07-06T18:05:52.520Z,26.55
2018-07-06T18:08:21.078Z,26.72
2018-07-06T18:10:49.700Z,26.40
2018-07-06T18:13:18.751Z,26.35
2018-07-06T18:15:47.680Z,26.58
2018-07-06T18:18:16.433Z,26.24
2018-07-06T18:20:45.182Z,26.28
2018-07-06T18:23:14.022Z,26.13
2018-07-06T18:25:42.492Z,26.00
2018-07-06T18:28:11.100Z,26.19
2018-07-06T18:30:39.669Z,26.18
2018-07-06T18:33:08.399Z,26.01
2018-07-06T18:35:36.999Z,25.96
2018-07-06T18:38:05.636Z,25.78
2018-07-06T18:40:34.228Z,25.66
2018-07-06T18:43:02.761Z,25.40
2018-07-06T18:45:31.576Z,25.52
2018-07-06T18:48:00.185Z,25.46
2018-07-06T18:50:28.833Z,25.45
2018-07-06T18:52:57.384Z,25.14
2018-07-06T18:55:25.998Z,25.38
2018-07-06T18:57:54.533Z,25.31
2018-07-06T19:00:23.078Z,25.30
2018-07-06T19:02:51.724Z,25.30
2018-07-06T19:05:20.272Z,25.10
2018-07-06T19:07:48.821Z,25.23
2018-07-06T19:10:17.536Z,25.27
2018-07-06T19:12:46.160Z,25.10
2018-07-06T19:15:14.769Z,24.73
2018-07-06T19:17:43.356Z,24.93
2018-07-06T19:20:12.009Z,25.02
2018-07-06T19:22:40.677Z,24.88
2018-07-06T19:25:09.297Z,24.54
2018-07-06T19:27:38.384Z,24.38
2018-07-06T19:30:07.128Z,24.35
2018-07-06T19:32:35.795Z,24.47
2018-07-06T19:35:04.432Z,24.14
2018-07-06T19:37:32.954Z,23.90
2018-07-06T19:40:01.670Z,23.92
2018-07-06T19:42:30.257Z,23.73
2018-07-06T19:44:58.896Z,23.87
2018-07-06T19:47:27.545Z,23.81
2018-07-06T19:49:56.347Z,23.66
2018-07-06T19:52:25.116Z,23.52
2018-07-06T19:54:53.724Z,23.28
2018-07-06T19:57:22.248Z,23.43
2018-07-06T19:59:50.840Z,23.37
2018-07-06T20:02:19.388Z,23.17
2018-07-06T20:04:48.457Z,22.94
2018-07-06T20:07:17.128Z,23.09
2018-07-06T20:09:45.704Z,23.01
2018-07-06T20:12:14.305Z,23.08
2018-07-06T20:14:42.946Z,23.05
2018-07-06T20:17:11.572Z,22.90
2018-07-06T20:19:40.196Z,23.14
2018-07-06T20:22:08.733Z,22.93
2018-07-06T20:24:37.269Z,22.53
2018-07-06T20:27:05.806Z,22.38
2018-07-06T20:29:34.602Z,22.21
2018-07-06T20:32:03.224Z,21.97
2018-07-06T20:34:31.772Z,22.09
2018-07-06T20:37:00.352Z,21.96
2018-07-06T20:39:29.000Z,21.95
2018-07-06T20:41:57.635Z,21.72
2018-07-06T20:44:26.281Z,21.53
2018-07-06T20:46:55.013Z,21.22
2018-07-06T20:49:23.684Z,21.24
2018-07-06T20:51:52.292Z,21.13
2018-07-06T20:54:20.929Z,20.90
2018-07-06T20:56:49.568Z,20.96
2018-07-06T20:59:18.181Z,20.59
2018-07-06T21:01:46.804Z,20.65
2018-07-06T21:04:15.337Z,20.53
2018-07-06T21:06:44.098Z,20.50
2018-07-06T21:09:12.665Z,20.33
2018-07-06T21:11:41.264Z,19.92
2018-07-06T21:14:09.976Z,20.08
2018-07-06T21:16:38.648Z,19.89
2018-07-06T21:19:07.688Z,20.02
2018-07-06T21:21:36.240Z,20.03
2018-07-06T21:24:04.792Z,20.01
2018-07-06T21:26:33.480Z,19.91
2018-07-06T21:29:02.092Z,19.88
2018-07-06T21:31:31.105Z,19.59
2018-07-06T21:33:59.632Z,19.59
2018-07-06T21:36:28.395Z,19.76
2018-07-06T21:38:57.045Z,19.58
2018-07-06T21:41:25.561Z,19.50
2018-07-06T21:43:54.144Z,19.57
2018-07-06T21:46:22.759Z,19.43
2018-07-06T21:48:51.333Z,19.54
2018-07-06T21:51:19.969Z,19.48
2018-07-06T21:53:48.604Z,19.35
2018-07-06T21:56:17.221Z,19.19
2018-07-06T21:58:45.817Z,19.01
2018-07-06T22:01:14.408Z,18.96
2018-07-06T22:03:43.048Z,18.79
2018-07-06T22:06:11.744Z,18.88
2018-07-06T22:08:40.653Z,18.90
2018-07-06T22:11:09.285Z,18.80
2018-07-06T22:13:37.867Z,18.78
2018-07-06T22:16:06.524Z,18.71
2018-07-06T22:18:35.214Z,18.85
2018-07-06T22:21:03.805Z,18.76
2018-07-06T22:23:32.412Z,18.87
2018-07-06T22:26:01.024Z,18.64
2018-07-06T22:28:29.682Z,18.68
2018-07-06T22:30:58.291Z,18.71
2018-07-06T22:33:26.892Z,18.45
2018-07-06T22:35:55.469Z,18.55
2018-07-06T22:38:24.064Z,18.43
2018-07-06T22:40:52.660Z,18.33
2018-07-06T22:43:21.249Z,18.41
2018-07-06T22:45:49.896Z,18.39
2018-07-06T22:48:18.553Z,18.17
2018-07-06T22:50:47.284Z,18.09
2018-07-06T22:53:16.061Z,17.95
2018-07-06T22:55:44.756Z,18.02
2018-07-06T22:58:13.431Z,18.05
2018-07-06T23:00:42.099Z,17.98
2018-07-06T23:03:10.710Z,17.95
2018-07-06T23:05:39.332Z,17.87
2018-07-06T23:08:08.036Z,17.82
2018-07-06T23:10:36.652Z,17.58
2018-07-06T23:13:05.773Z,17.44
2018-07-06T23:15:34.606Z,17.30
2018-07-06T23:18:03.276Z,17.39
2018-07-06T23:20:31.932Z,17.32
2018-07-06T23:23:07.966Z,17.30
2018-07-06T23:25:37.858Z,17.40
2018-07-06T23:28:06.736Z,17.34
2018-07-06T23:30:35.476Z,17.30
2018-07-06T23:33:05.173Z,17.26
2018-07-06T23:35:34.380Z,17.23
2018-07-06T23:38:03.033Z,17.16
2018-07-06T23:40:31.677Z,17.27
2018-07-06T23:43:00.350Z,17.28
2018-07-06T23:45:29.020Z,17.04
2018-07-06T23:47:57.664Z,17.07
2018-07-06T23:50:26.432Z,16.90
2018-07-06T23:52:55.127Z,16.87
2018-07-06T23:55:23.893Z,16.84
2018-07-06T23:57:52.580Z,16.84
